createdAt,value
2022-11-19T00:01:22.125Z,5.61
2022-11-19T00:03:52.594Z,5.52
2022-11-19T00:06:24.048Z,5.43
2022-11-19T00:08:51.023Z,5.27
2022-11-19T00:11:40.784Z,5.12
2022-11-19T00:14:09.719Z,5.04
2022-11-19T00:16:36.691Z,5.03
2022-11-19T00:19:04.085Z,4.91
2022-11-19T00:21:30.832Z,4.86
2022-11-19T00:23:57.832Z,4.71
2022-11-19T00:26:24.958Z,4.76
2022-11-19T00:28:51.634Z,4.67
2022-11-19T00:31:18.767Z,4.66
2022-11-19T00:33:46.154Z,4.56
2022-11-19T00:36:15.435Z,4.51
2022-11-19T00:38:42.921Z,4.47
2022-11-19T00:41:10.000Z,4.37
2022-11-19T00:43:49.960Z,4.18
2022-11-19T00:46:31.027Z,4.11
2022-11-19T00:48:59.515Z,3.99
2022-11-19T00:51:29.189Z,3.92
2022-11-19T00:53:56.267Z,3.91
2022-11-19T00:56:24.931Z,3.76
2022-11-19T00:58:52.401Z,3.61
2022-11-19T01:01:20.802Z,3.61
2022-11-19T01:03:48.149Z,3.55
2022-11-19T01:06:19.365Z,3.44
2022-11-19T01:08:51.010Z,3.38
2022-11-19T01:11:20.822Z,3.34
2022-11-19T01:13:48.090Z,3.36
2022-11-19T01:16:24.868Z,3.34
2022-11-19T01:18:52.299Z,3.24
2022-11-19T01:21:20.594Z,3.19
2022-11-19T01:23:47.706Z,3.17
2022-11-19T01:26:16.016Z,2.97
2022-11-19T01:28:42.894Z,3.05
2022-11-19T01:31:12.322Z,3.02
2022-11-19T01:33:39.394Z,2.89
2022-11-19T01:36:08.998Z,2.98
2022-11-19T01:38:35.859Z,2.96
2022-11-19T01:41:03.708Z,2.94
2022-11-19T01:44:04.623Z,2.82
2022-11-19T01:46:33.918Z,2.81
2022-11-19T01:49:14.597Z,2.84
2022-11-19T01:52:00.875Z,2.80
2022-11-19T01:54:44.191Z,2.76
2022-11-19T01:57:14.771Z,2.68
2022-11-19T01:59:43.807Z,2.48
2022-11-19T02:02:10.735Z,2.55
2022-11-19T02:04:37.572Z,2.53
2022-11-19T02:07:04.607Z,2.45
2022-11-19T02:09:33.323Z,2.50
2022-11-19T02:12:13.483Z,2.49
2022-11-19T02:15:06.041Z,2.49
2022-11-19T02:18:01.668Z,2.51
2022-11-19T02:20:43.649Z,2.52
2022-11-19T02:23:22.870Z,2.44
2022-11-19T02:26:01.642Z,2.48
2022-11-19T02:28:48.141Z,2.34
2022-11-19T02:31:14.880Z,2.41
2022-11-19T02:34:01.530Z,2.27
2022-11-19T02:37:05.232Z,2.22
2022-11-19T02:39:45.190Z,2.28
2022-11-19T02:42:20.429Z,2.28
2022-11-19T02:45:02.996Z,2.19
2022-11-19T02:47:39.030Z,2.20
2022-11-19T02:50:13.494Z,2.18
2022-11-19T02:52:43.981Z,2.13
2022-11-19T02:55:13.772Z,2.15
2022-11-19T02:57:42.886Z,2.00
2022-11-19T03:00:28.703Z,1.99
2022-11-19T03:03:30.313Z,2.02
2022-11-19T03:06:11.191Z,1.99
2022-11-19T03:08:38.426Z,1.93
2022-11-19T03:11:23.852Z,1.93
2022-11-19T03:14:21.175Z,1.94
2022-11-19T03:17:40.400Z,1.83
2022-11-19T03:20:19.209Z,1.84
2022-11-19T03:22:56.062Z,1.82
2022-11-19T03:25:26.586Z,1.84
2022-11-19T03:27:58.815Z,1.83
2022-11-19T03:30:26.672Z,1.68
2022-11-19T03:33:08.663Z,1.63
2022-11-19T03:35:45.379Z,1.68
2022-11-19T03:38:16.871Z,1.55
2022-11-19T03:40:44.982Z,1.61
2022-11-19T03:43:15.905Z,1.56
2022-11-19T03:45:45.507Z,1.52
2022-11-19T03:48:15.851Z,1.47
2022-11-19T03:51:07.164Z,1.47
2022-11-19T03:53:33.998Z,1.43
2022-11-19T03:56:04.099Z,1.40
2022-11-19T03:58:38.021Z,1.41
2022-11-19T04:01:04.875Z,1.41
2022-11-19T04:03:31.602Z,1.43
2022-11-19T04:05:58.331Z,1.47
2022-11-19T04:08:25.290Z,1.45
2022-11-19T04:10:51.990Z,1.41
2022-11-19T04:13:18.763Z,1.36
2022-11-19T04:15:45.490Z,1.45
2022-11-19T04:18:12.213Z,1.44
2022-11-19T04:20:38.861Z,1.36
2022-11-19T04:23:05.542Z,1.39
2022-11-19T04:25:32.212Z,1.43
2022-11-19T04:27:58.904Z,1.38
2022-11-19T04:30:25.715Z,1.38
2022-11-19T04:32:52.521Z,1.42
2022-11-19T04:35:22.049Z,1.31
2022-11-19T04:37:49.166Z,1.24
2022-11-19T04:40:16.036Z,1.26
2022-11-19T04:42:43.318Z,1.25
2022-11-19T04:45:10.439Z,1.26
2022-11-19T04:47:37.963Z,1.25
2022-11-19T04:50:04.983Z,1.22
2022-11-19T04:52:37.661Z,1.24
2022-11-19T04:55:07.313Z,1.19
2022-11-19T04:57:33.979Z,1.21
2022-11-19T05:00:00.784Z,1.20
2022-11-19T05:02:27.614Z,1.27
2022-11-19T05:04:54.284Z,1.21
2022-11-19T05:07:21.119Z,1.21
2022-11-19T05:09:47.916Z,1.21
2022-11-19T05:12:14.642Z,1.11
2022-11-19T05:14:41.555Z,1.14
2022-11-19T05:17:08.454Z,1.07
2022-11-19T05:19:35.291Z,1.04
2022-11-19T05:22:02.013Z,1.07
2022-11-19T05:24:28.764Z,0.98
2022-11-19T05:26:55.487Z,1.01
2022-11-19T05:29:22.357Z,1.05
2022-11-19T05:31:49.176Z,0.99
2022-11-19T05:34:15.987Z,1.00
2022-11-19T05:36:42.649Z,0.94
2022-11-19T05:39:09.417Z,0.93
2022-11-19T05:41:36.199Z,0.92
2022-11-19T05:44:03.385Z,0.91
2022-11-19T05:46:30.136Z,0.92
2022-11-19T05:48:56.900Z,0.94
2022-11-19T05:51:23.721Z,0.91
2022-11-19T05:53:50.534Z,0.90
2022-11-19T05:56:17.355Z,0.83
2022-11-19T05:58:44.085Z,0.82
2022-11-19T06:01:10.730Z,0.89
2022-11-19T06:03:37.460Z,0.83
2022-11-19T06:06:04.456Z,0.83
2022-11-19T06:08:31.206Z,0.80
2022-11-19T06:10:58.106Z,0.84
2022-11-19T06:13:24.821Z,0.84
2022-11-19T06:15:51.621Z,0.87
2022-11-19T06:18:18.441Z,0.82
2022-11-19T06:20:45.172Z,0.78
2022-11-19T06:23:11.876Z,0.73
2022-11-19T06:25:38.527Z,0.79
2022-11-19T06:28:05.398Z,0.75
2022-11-19T06:30:32.087Z,0.74
2022-11-19T06:32:59.004Z,0.75
2022-11-19T06:35:26.443Z,0.71
2022-11-19T06:37:53.091Z,0.70
2022-11-19T06:40:19.841Z,0.73
2022-11-19T06:42:50.799Z,0.74
2022-11-19T06:45:17.939Z,0.69
2022-11-19T06:47:47.675Z,0.68
2022-11-19T06:50:14.435Z,0.70
2022-11-19T06:52:41.208Z,0.69
2022-11-19T06:55:08.352Z,0.69
2022-11-19T06:57:35.026Z,0.73
2022-11-19T07:00:01.733Z,0.69
2022-11-19T07:02:28.550Z,0.69
2022-11-19T07:04:55.289Z,0.71
2022-11-19T07:07:22.192Z,0.62
2022-11-19T07:09:49.138Z,0.56
2022-11-19T07:12:15.869Z,0.59
2022-11-19T07:14:42.719Z,0.51
2022-11-19T07:17:09.529Z,0.58
2022-11-19T07:19:36.288Z,0.54
2022-11-19T07:22:03.070Z,0.51
2022-11-19T07:24:29.814Z,0.47
2022-11-19T07:26:56.661Z,0.51
2022-11-19T07:29:23.635Z,0.63
2022-11-19T07:31:50.972Z,0.54
2022-11-19T07:34:18.223Z,0.52
2022-11-19T07:36:45.708Z,0.51
2022-11-19T07:39:12.682Z,0.51
2022-11-19T07:41:57.955Z,0.55
2022-11-19T07:44:24.623Z,0.50
2022-11-19T07:46:51.343Z,0.44
2022-11-19T07:49:18.822Z,0.47
2022-11-19T07:51:46.023Z,0.52
2022-11-19T07:54:13.018Z,0.59
2022-11-19T07:56:40.614Z,0.51
2022-11-19T07:59:07.334Z,0.47
2022-11-19T08:01:34.532Z,0.50
2022-11-19T08:04:02.461Z,0.53
2022-11-19T08:06:30.074Z,0.60
2022-11-19T08:08:56.787Z,0.56
2022-11-19T08:11:24.501Z,0.54
2022-11-19T08:13:51.800Z,0.58
2022-11-19T08:16:37.603Z,0.53
2022-11-19T08:19:09.939Z,0.58
2022-11-19T08:21:40.218Z,0.60
2022-11-19T08:24:08.298Z,0.60
2022-11-19T08:26:35.297Z,0.60
2022-11-19T08:29:02.203Z,0.59
2022-11-19T08:31:29.135Z,0.55
2022-11-19T08:33:56.098Z,0.60
2022-11-19T08:36:22.929Z,0.60
2022-11-19T08:38:49.766Z,0.52
2022-11-19T08:41:35.192Z,0.59
2022-11-19T08:44:02.727Z,0.57
2022-11-19T08:46:29.464Z,0.58
2022-11-19T08:48:56.225Z,0.59
2022-11-19T08:51:23.057Z,0.57
2022-11-19T08:53:52.641Z,0.67
2022-11-19T08:56:20.341Z,0.58
2022-11-19T08:58:47.789Z,0.58
2022-11-19T09:01:16.608Z,0.60
2022-11-19T09:03:44.021Z,0.73
2022-11-19T09:06:11.587Z,0.58
2022-11-19T09:08:39.079Z,0.67
2022-11-19T09:11:07.890Z,0.60
2022-11-19T09:13:35.043Z,0.60
2022-11-19T09:16:02.309Z,0.67
2022-11-19T09:18:29.058Z,0.61
2022-11-19T09:20:56.802Z,0.61
2022-11-19T09:23:25.247Z,0.56
2022-11-19T09:26:03.282Z,0.56
2022-11-19T09:28:31.010Z,0.58
2022-11-19T09:30:59.570Z,0.53
2022-11-19T09:33:27.032Z,0.54
2022-11-19T09:35:53.876Z,0.54
2022-11-19T09:38:20.877Z,0.58
2022-11-19T09:40:52.779Z,0.55
2022-11-19T09:43:44.478Z,0.58
2022-11-19T09:46:36.383Z,0.58
2022-11-19T09:49:10.689Z,0.60
2022-11-19T09:51:42.765Z,0.59
2022-11-19T09:54:18.886Z,0.59
2022-11-19T09:56:47.700Z,0.61
2022-11-19T09:59:33.766Z,0.62
2022-11-19T10:02:00.733Z,0.60
2022-11-19T10:04:31.913Z,0.79
2022-11-19T10:07:21.586Z,0.75
2022-11-19T10:10:20.750Z,0.59
2022-11-19T10:13:12.320Z,0.62
2022-11-19T10:15:55.917Z,0.70
2022-11-19T10:18:40.199Z,0.60
2022-11-19T10:21:31.814Z,0.60
2022-11-19T10:24:28.598Z,0.72
2022-11-19T10:27:05.775Z,0.68
2022-11-19T10:29:38.608Z,0.62
2022-11-19T10:32:24.163Z,0.75
2022-11-19T10:34:58.768Z,0.68
2022-11-19T10:37:31.503Z,0.69
2022-11-19T10:40:08.404Z,0.77
2022-11-19T10:42:39.889Z,0.74
2022-11-19T10:45:21.211Z,0.70
2022-11-19T10:48:04.552Z,0.90
2022-11-19T10:50:34.333Z,0.75
2022-11-19T10:53:13.878Z,0.85
2022-11-19T10:56:06.272Z,0.71
2022-11-19T10:58:40.705Z,0.78
2022-11-19T11:01:17.510Z,0.70
2022-11-19T11:03:49.445Z,0.69
2022-11-19T11:06:16.218Z,0.68
2022-11-19T11:08:56.537Z,0.70
2022-11-19T11:11:50.268Z,0.65
2022-11-19T11:14:38.821Z,0.62
2022-11-19T11:17:18.704Z,0.69
2022-11-19T11:19:45.704Z,0.58
2022-11-19T11:22:12.611Z,0.73
2022-11-19T11:24:39.746Z,0.71
2022-11-19T11:27:29.191Z,0.70
2022-11-19T11:30:25.470Z,0.66
2022-11-19T11:32:52.391Z,0.68
2022-11-19T11:35:36.570Z,0.67
2022-11-19T11:38:05.209Z,0.70
2022-11-19T11:40:32.084Z,0.70
2022-11-19T11:42:58.936Z,0.58
2022-11-19T11:45:34.427Z,0.68
2022-11-19T11:48:07.634Z,0.73
2022-11-19T11:50:36.783Z,0.67
2022-11-19T11:53:09.597Z,0.69
2022-11-19T11:55:38.615Z,0.61
2022-11-19T11:58:25.397Z,0.59
2022-11-19T12:01:15.297Z,0.62
2022-11-19T12:03:56.876Z,0.70
2022-11-19T12:06:29.056Z,0.67
2022-11-19T12:08:58.642Z,0.67
2022-11-19T12:11:25.399Z,0.67
2022-11-19T12:14:12.765Z,0.74
2022-11-19T12:16:55.602Z,0.75
2022-11-19T12:19:54.704Z,0.66
2022-11-19T12:22:51.361Z,0.69
2022-11-19T12:25:52.052Z,0.66
2022-11-19T12:28:34.510Z,0.61
2022-11-19T12:31:01.234Z,0.53
2022-11-19T12:33:38.200Z,0.69
2022-11-19T12:36:10.460Z,0.59
2022-11-19T12:38:49.196Z,0.70
2022-11-19T12:41:30.164Z,0.64
2022-11-19T12:44:02.271Z,0.57
2022-11-19T12:46:56.086Z,0.64
2022-11-19T12:49:47.949Z,0.65
2022-11-19T12:52:42.997Z,0.67
2022-11-19T12:55:25.166Z,0.61
2022-11-19T12:58:02.764Z,0.65
2022-11-19T13:00:30.917Z,0.69
2022-11-19T13:03:11.631Z,0.73
2022-11-19T13:05:47.546Z,0.68
2022-11-19T13:08:20.934Z,0.68
2022-11-19T13:11:38.820Z,0.71
2022-11-19T13:14:26.219Z,0.65
2022-11-19T13:16:56.106Z,0.67
2022-11-19T13:19:27.872Z,0.66
2022-11-19T13:21:54.616Z,0.61
2022-11-19T13:24:30.155Z,0.76
2022-11-19T13:27:02.994Z,0.70
2022-11-19T13:29:41.879Z,0.69
2022-11-19T13:32:20.335Z,0.72
2022-11-19T13:35:23.997Z,0.73
2022-11-19T13:38:02.921Z,0.67
2022-11-19T13:40:51.132Z,0.62
2022-11-19T13:43:38.730Z,0.65
2022-11-19T13:46:17.912Z,0.58
2022-11-19T13:48:56.345Z,0.59
2022-11-19T13:51:31.887Z,0.73
2022-11-19T13:54:03.350Z,0.58
2022-11-19T13:56:40.774Z,0.64
2022-11-19T13:59:08.597Z,0.68
2022-11-19T14:01:55.884Z,0.67
2022-11-19T14:04:47.404Z,0.62
2022-11-19T14:07:19.899Z,0.59
2022-11-19T14:10:07.211Z,0.61
2022-11-19T14:12:49.080Z,0.61
2022-11-19T14:15:47.484Z,0.67
2022-11-19T14:18:54.519Z,0.59
2022-11-19T14:22:04.411Z,0.61
2022-11-19T14:24:49.446Z,0.56
2022-11-19T14:27:35.687Z,0.55
2022-11-19T14:30:14.367Z,0.58
2022-11-19T14:32:47.294Z,0.60
2022-11-19T14:35:21.911Z,0.62
2022-11-19T14:38:12.001Z,0.61
2022-11-19T14:40:43.655Z,0.53
2022-11-19T14:43:36.369Z,0.64
2022-11-19T15:11:57.540Z,0.55
2022-11-19T15:14:38.484Z,0.56
2022-11-19T15:17:06.909Z,0.54
2022-11-19T15:19:55.955Z,0.53
2022-11-19T15:22:44.545Z,0.54
2022-11-19T15:25:32.874Z,0.55
2022-11-19T15:28:15.445Z,0.51
2022-11-19T15:31:05.100Z,0.63
2022-11-19T15:33:54.753Z,0.61
2022-11-19T15:36:32.472Z,0.53
2022-11-19T15:39:12.168Z,0.57
2022-11-19T15:41:43.806Z,0.50
2022-11-19T15:44:17.745Z,0.47
2022-11-19T15:46:58.953Z,0.50
2022-11-19T15:49:30.404Z,0.48
2022-11-19T15:52:27.410Z,0.47
2022-11-19T15:55:10.871Z,0.46
2022-11-19T15:57:43.260Z,0.43
2022-11-19T16:00:19.570Z,0.49
2022-11-19T16:02:49.721Z,0.41
2022-11-19T16:05:27.061Z,0.36
2022-11-19T16:07:54.549Z,0.39
2022-11-19T16:10:33.572Z,0.39
2022-11-19T16:13:21.886Z,0.42
2022-11-19T16:16:09.231Z,0.42
2022-11-19T16:18:52.231Z,0.45
2022-11-19T16:21:26.575Z,0.43
2022-11-19T16:24:12.879Z,0.44
2022-11-19T16:26:41.371Z,0.36
2022-11-19T16:29:17.097Z,0.37
2022-11-19T16:31:44.217Z,0.41
2022-11-19T16:34:22.655Z,0.38
2022-11-19T16:36:50.469Z,0.44
2022-11-19T16:39:22.456Z,0.34
2022-11-19T16:42:14.332Z,0.30
2022-11-19T16:44:45.502Z,0.37
2022-11-19T16:47:22.643Z,0.31
2022-11-19T16:49:49.241Z,0.34
2022-11-19T16:52:37.112Z,0.42
2022-11-19T16:55:07.066Z,0.42
2022-11-19T16:57:33.838Z,0.30
2022-11-19T17:00:15.249Z,0.36
2022-11-19T17:02:42.200Z,0.38
2022-11-19T17:05:12.563Z,0.35
2022-11-19T17:07:40.451Z,0.35
2022-11-19T17:10:10.369Z,0.31
2022-11-19T17:12:37.865Z,0.33
2022-11-19T17:15:39.476Z,0.33
2022-11-19T17:18:29.962Z,0.34
2022-11-19T17:21:00.651Z,0.33
2022-11-19T17:23:31.529Z,0.29
2022-11-19T17:26:04.447Z,0.33
2022-11-19T17:28:51.552Z,0.20
2022-11-19T17:31:23.532Z,0.22
2022-11-19T17:33:51.651Z,0.20
2022-11-19T17:36:18.673Z,0.19
2022-11-19T17:38:45.468Z,0.22
2022-11-19T17:41:16.559Z,0.21
2022-11-19T17:44:02.115Z,0.21
2022-11-19T17:46:29.997Z,0.23
2022-11-19T17:48:57.215Z,0.22
2022-11-19T17:51:26.012Z,0.20
2022-11-19T17:53:53.691Z,0.23
2022-11-19T17:56:30.492Z,0.13
2022-11-19T17:58:59.658Z,0.19
2022-11-19T18:01:26.660Z,0.16
2022-11-19T18:03:53.476Z,0.25
2022-11-19T18:06:20.150Z,0.15
2022-11-19T18:08:47.024Z,0.19
2022-11-19T18:11:17.136Z,0.15
2022-11-19T18:13:44.536Z,0.16
2022-11-19T18:16:20.894Z,0.08
2022-11-19T18:18:48.390Z,0.11
2022-11-19T18:21:17.847Z,0.15
2022-11-19T18:23:45.733Z,0.06
2022-11-19T18:26:14.062Z,0.10
2022-11-19T18:28:46.235Z,0.03
2022-11-19T18:31:21.812Z,0.05
2022-11-19T18:33:50.360Z,0.06
2022-11-19T18:36:17.364Z,-0.00
2022-11-19T18:38:45.038Z,-0.00
2022-11-19T18:41:13.904Z,0.01
2022-11-19T18:43:59.993Z,0.08
2022-11-19T18:46:26.954Z,0.01
2022-11-19T18:48:56.854Z,0.02
2022-11-19T18:51:24.281Z,0.03
2022-11-19T18:53:51.104Z,0.01
2022-11-19T18:56:19.378Z,-0.05
2022-11-19T18:58:46.182Z,-0.02
2022-11-19T19:01:13.384Z,0.04
2022-11-19T19:03:40.193Z,0.04
2022-11-19T19:06:08.485Z,0.13
2022-11-19T19:08:36.162Z,0.02
2022-11-19T19:11:25.524Z,0.05
2022-11-19T19:13:52.880Z,0.05
2022-11-19T19:16:20.024Z,0.18
2022-11-19T19:18:46.796Z,0.06
2022-11-19T19:21:15.488Z,0.01
2022-11-19T19:23:42.350Z,0.03
2022-11-19T19:26:10.114Z,-0.04
2022-11-19T19:28:37.266Z,-0.07
2022-11-19T19:31:04.618Z,-0.00
2022-11-19T19:33:31.937Z,0.02
2022-11-19T19:35:58.809Z,0.07
2022-11-19T19:38:25.626Z,0.04
2022-11-19T19:40:52.461Z,0.03
2022-11-19T19:43:19.170Z,0.03
2022-11-19T19:45:45.945Z,-0.03
2022-11-19T19:48:12.668Z,-0.05
2022-11-19T19:50:39.493Z,-0.01
2022-11-19T19:53:06.168Z,-0.02
2022-11-19T19:55:32.826Z,-0.13
2022-11-19T19:58:01.694Z,-0.08
2022-11-19T20:00:28.361Z,-0.10
2022-11-19T20:02:55.430Z,-0.12
2022-11-19T20:05:22.138Z,-0.07
2022-11-19T20:07:48.834Z,-0.08
2022-11-19T20:10:16.221Z,-0.11
2022-11-19T20:13:01.588Z,-0.19
2022-11-19T20:15:28.224Z,-0.22
2022-11-19T20:17:54.976Z,-0.19
2022-11-19T20:20:21.625Z,-0.16
2022-11-19T20:22:48.298Z,-0.23
2022-11-19T20:25:15.134Z,-0.23
2022-11-19T20:27:41.768Z,-0.19
2022-11-19T20:30:09.599Z,-0.19
2022-11-19T20:32:36.407Z,-0.22
2022-11-19T20:35:03.677Z,-0.23
2022-11-19T20:37:30.373Z,-0.19
2022-11-19T20:39:57.261Z,-0.07
2022-11-19T20:42:42.668Z,-0.23
2022-11-19T20:45:09.578Z,-0.15
2022-11-19T20:47:36.334Z,-0.16
2022-11-19T20:50:03.181Z,-0.16
2022-11-19T20:52:29.897Z,-0.23
2022-11-19T20:54:56.537Z,0.09
2022-11-19T20:57:23.237Z,-0.14
2022-11-19T20:59:50.016Z,-0.11
2022-11-19T21:02:16.790Z,-0.15
2022-11-19T21:04:43.544Z,-0.17
2022-11-19T21:07:10.362Z,-0.21
2022-11-19T21:09:37.748Z,-0.25
2022-11-19T21:12:04.662Z,-0.17
2022-11-19T21:14:31.359Z,-0.20
2022-11-19T21:16:58.107Z,-0.10
2022-11-19T21:19:24.972Z,-0.10
2022-11-19T21:21:52.803Z,-0.20
2022-11-19T21:24:19.921Z,-0.16
2022-11-19T21:26:47.114Z,-0.13
2022-11-19T21:29:13.806Z,-0.11
2022-11-19T21:31:45.864Z,-0.11
2022-11-19T21:34:17.999Z,-0.12
2022-11-19T21:36:45.783Z,-0.09
2022-11-19T21:39:14.019Z,-0.02
2022-11-19T21:41:41.054Z,-0.04
2022-11-19T21:44:07.884Z,0.03
2022-11-19T21:46:35.332Z,-0.06
2022-11-19T21:49:02.594Z,-0.09
2022-11-19T21:51:29.483Z,-0.09
2022-11-19T21:53:58.071Z,-0.10
2022-11-19T21:56:26.279Z,-0.20
2022-11-19T21:58:53.031Z,-0.20
2022-11-19T22:01:19.995Z,-0.19
2022-11-19T22:03:47.373Z,-0.14
2022-11-19T22:06:14.143Z,-0.15
2022-11-19T22:08:42.101Z,-0.10
2022-11-19T22:11:28.754Z,-0.16
2022-11-19T22:14:03.367Z,-0.09
2022-11-19T22:16:31.961Z,-0.13
2022-11-19T22:18:58.710Z,-0.12
2022-11-19T22:21:26.055Z,-0.11
2022-11-19T22:23:52.955Z,-0.10
2022-11-19T22:26:19.750Z,-0.07
2022-11-19T22:28:46.416Z,-0.10
2022-11-19T22:31:14.342Z,-0.12
2022-11-19T22:33:41.837Z,-0.11
2022-11-19T22:36:10.719Z,-0.08
2022-11-19T22:38:38.914Z,-0.14
2022-11-19T22:41:09.632Z,-0.12
2022-11-19T22:43:37.460Z,-0.17
2022-11-19T22:46:04.938Z,-0.18
2022-11-19T22:48:32.890Z,-0.19
2022-11-19T22:51:03.740Z,-0.18
2022-11-19T22:53:30.513Z,-0.18
2022-11-19T22:56:18.101Z,-0.21
2022-11-19T22:58:44.820Z,-0.19
2022-11-19T23:01:22.377Z,-0.18
2022-11-19T23:03:49.896Z,-0.24
2022-11-19T23:06:17.249Z,-0.21
2022-11-19T23:08:44.619Z,-0.23
2022-11-19T23:11:12.183Z,-0.22
2022-11-19T23:13:41.647Z,-0.15
2022-11-19T23:16:16.701Z,-0.18
2022-11-19T23:18:53.176Z,-0.09
2022-11-19T23:21:24.634Z,-0.11
2022-11-19T23:23:52.357Z,-0.16
2022-11-19T23:26:21.614Z,-0.20
2022-11-19T23:28:48.780Z,-0.31
2022-11-19T23:31:16.999Z,-0.35
2022-11-19T23:33:44.553Z,-0.20
2022-11-19T23:36:14.159Z,-0.08
2022-11-19T23:38:41.119Z,-0.23
2022-11-19T23:41:10.057Z,-0.28
2022-11-19T23:43:37.625Z,-0.29
2022-11-19T23:46:05.765Z,-0.28
2022-11-19T23:48:33.930Z,-0.23
2022-11-19T23:51:02.844Z,-0.21
2022-11-19T23:53:29.881Z,-0.16
2022-11-19T23:55:56.768Z,-0.30
2022-11-19T23:58:23.636Z,-0.20
